createdAt,value
2023-02-23T00:00:29.404Z,0.00
2023-02-23T00:01:29.426Z,0.00
2023-02-23T00:02:29.408Z,0.00
2023-02-23T00:03:29.429Z,0.00
2023-02-23T00:04:29.379Z,0.00
2023-02-23T00:05:29.343Z,0.00
2023-02-23T00:06:29.364Z,0.00
2023-02-23T00:07:29.337Z,0.00
2023-02-23T00:08:29.317Z,0.00
2023-02-23T00:09:29.312Z,0.00
2023-02-23T00:10:29.298Z,0.00
2023-02-23T00:11:29.279Z,0.00
2023-02-23T00:12:29.299Z,0.00
2023-02-23T00:13:29.263Z,0.00
2023-02-23T00:14:29.270Z,0.00
2023-02-23T00:15:29.230Z,0.00
2023-02-23T00:16:29.310Z,0.00
2023-02-23T00:17:29.229Z,0.00
2023-02-23T00:18:29.195Z,0.00
2023-02-23T00:19:29.222Z,0.00
2023-02-23T00:20:29.183Z,0.00
2023-02-23T00:21:29.203Z,0.00
2023-02-23T00:22:29.154Z,0.00
2023-02-23T00:23:29.149Z,0.00
2023-02-23T00:24:29.148Z,0.00
2023-02-23T00:25:29.143Z,0.00
2023-02-23T00:26:29.117Z,0.00
2023-02-23T00:27:29.104Z,0.00
2023-02-23T00:28:29.103Z,0.00
2023-02-23T00:29:29.106Z,0.00
2023-02-23T00:30:29.077Z,0.00
2023-02-23T00:31:29.109Z,0.00
2023-02-23T00:32:29.204Z,0.00
2023-02-23T00:33:29.040Z,0.00
2023-02-23T00:34:29.039Z,0.00
2023-02-23T00:35:29.042Z,0.00
2023-02-23T00:36:29.029Z,0.00
2023-02-23T00:37:29.001Z,0.00
2023-02-23T00:38:28.997Z,0.00
2023-02-23T00:39:29.335Z,0.00
2023-02-23T00:40:28.963Z,0.00
2023-02-23T00:41:28.961Z,0.00
2023-02-23T00:42:28.956Z,0.00
2023-02-23T00:43:35.946Z,0.00
2023-02-23T00:44:28.932Z,0.00
2023-02-23T00:45:28.938Z,0.00
2023-02-23T00:46:28.901Z,0.00
2023-02-23T00:47:28.904Z,0.00
2023-02-23T00:48:28.920Z,0.00
2023-02-23T00:49:28.892Z,0.00
2023-02-23T00:50:28.857Z,0.00
2023-02-23T00:51:28.871Z,0.00
2023-02-23T00:52:28.857Z,0.00
2023-02-23T00:53:28.827Z,0.00
2023-02-23T00:54:28.820Z,0.00
2023-02-23T00:55:28.817Z,0.00
2023-02-23T00:56:28.795Z,0.00
2023-02-23T00:57:28.818Z,0.00
2023-02-23T00:58:28.780Z,0.00
2023-02-23T00:59:28.782Z,0.00
2023-02-23T01:00:28.779Z,0.00
2023-02-23T01:01:28.777Z,0.00
2023-02-23T01:02:28.781Z,0.00
2023-02-23T01:03:28.729Z,0.00
2023-02-23T01:04:28.700Z,0.00
2023-02-23T01:05:28.698Z,0.00
2023-02-23T01:06:28.720Z,0.00
2023-02-23T01:07:28.822Z,0.00
2023-02-23T01:08:28.661Z,0.00
2023-02-23T01:09:28.654Z,0.00
2023-02-23T01:10:28.656Z,0.00
2023-02-23T01:11:28.645Z,0.00
2023-02-23T01:12:28.618Z,0.00
2023-02-23T01:13:28.619Z,0.00
2023-02-23T01:14:28.632Z,0.00
2023-02-23T01:15:28.612Z,0.00
2023-02-23T01:16:28.569Z,0.00
2023-02-23T01:17:28.574Z,0.00
2023-02-23T01:18:28.541Z,0.00
2023-02-23T01:19:28.574Z,0.00
2023-02-23T01:20:28.542Z,0.00
2023-02-23T01:21:28.529Z,0.00
2023-02-23T01:22:28.502Z,0.00
2023-02-23T01:23:28.513Z,0.00
2023-02-23T01:24:28.481Z,0.00
2023-02-23T01:25:28.483Z,0.00
2023-02-23T01:26:28.465Z,0.00
2023-02-23T01:27:28.519Z,0.00
2023-02-23T01:28:28.433Z,0.00
2023-02-23T01:29:28.439Z,0.00
2023-02-23T01:30:28.445Z,0.00
2023-02-23T01:31:28.604Z,0.00
2023-02-23T01:32:28.480Z,0.00
2023-02-23T01:33:28.389Z,0.00
2023-02-23T01:34:28.382Z,0.00
2023-02-23T01:35:28.370Z,0.00
2023-02-23T01:36:28.348Z,0.00
2023-02-23T01:37:28.344Z,0.00
2023-02-23T01:38:28.347Z,0.00
2023-02-23T01:39:28.483Z,0.00
2023-02-23T01:40:28.307Z,0.00
2023-02-23T01:41:28.299Z,0.00
2023-02-23T01:42:28.297Z,0.00
2023-02-23T01:43:28.274Z,0.00
2023-02-23T01:44:28.292Z,0.00
2023-02-23T01:45:28.265Z,0.00
2023-02-23T01:46:28.351Z,0.00
2023-02-23T01:47:28.278Z,0.00
2023-02-23T01:48:28.217Z,0.00
2023-02-23T01:49:28.213Z,0.00
2023-02-23T01:50:28.220Z,0.00
2023-02-23T01:51:28.189Z,0.00
2023-02-23T01:52:28.212Z,0.00
2023-02-23T01:53:28.179Z,0.00
2023-02-23T01:54:28.187Z,0.00
2023-02-23T01:55:28.234Z,0.00
2023-02-23T01:56:28.140Z,0.00
2023-02-23T01:57:28.137Z,0.00
2023-02-23T01:58:28.122Z,0.00
2023-02-23T01:59:28.103Z,0.00
2023-02-23T02:00:28.103Z,0.00
2023-02-23T02:01:28.101Z,0.00
2023-02-23T02:02:28.093Z,0.00
2023-02-23T02:03:28.067Z,0.00
2023-02-23T02:04:28.084Z,0.00
2023-02-23T02:05:28.036Z,0.00
2023-02-23T02:06:28.022Z,0.00
2023-02-23T02:07:28.027Z,0.00
2023-02-23T02:08:27.996Z,0.00
2023-02-23T02:09:27.983Z,0.00
2023-02-23T02:10:27.991Z,0.00
2023-02-23T02:11:27.985Z,0.00
2023-02-23T02:12:27.966Z,0.00
2023-02-23T02:13:27.950Z,0.00
2023-02-23T02:14:28.022Z,0.00
2023-02-23T02:15:27.921Z,0.00
2023-02-23T02:16:27.990Z,0.00
2023-02-23T02:17:27.915Z,0.00
2023-02-23T02:18:27.890Z,0.00
2023-02-23T02:19:27.898Z,0.00
2023-02-23T02:20:27.871Z,0.00
2023-02-23T02:21:27.866Z,0.00
2023-02-23T02:22:27.863Z,0.00
2023-02-23T02:23:27.829Z,0.00
2023-02-23T02:24:29.816Z,0.00
2023-02-23T02:25:27.807Z,0.00
2023-02-23T02:26:27.800Z,0.00
2023-02-23T02:27:27.813Z,0.00
2023-02-23T02:28:27.791Z,0.00
2023-02-23T02:29:27.762Z,0.00
2023-02-23T02:30:27.794Z,0.00
2023-02-23T02:31:27.797Z,0.00
2023-02-23T02:32:27.816Z,0.00
2023-02-23T02:33:27.720Z,0.00
2023-02-23T02:34:27.759Z,0.00
2023-02-23T02:35:27.719Z,0.00
2023-02-23T02:36:27.713Z,0.00
2023-02-23T02:37:27.679Z,0.00
2023-02-23T02:38:27.679Z,0.00
2023-02-23T02:39:27.673Z,0.00
2023-02-23T02:40:27.663Z,0.00
2023-02-23T02:41:27.635Z,0.00
2023-02-23T02:42:27.654Z,0.00
2023-02-23T02:43:27.637Z,0.00
2023-02-23T02:44:35.134Z,0.00
2023-02-23T02:45:27.597Z,0.00
2023-02-23T02:46:27.701Z,0.00
2023-02-23T02:47:27.567Z,0.00
2023-02-23T02:48:27.590Z,0.00
2023-02-23T02:49:27.572Z,0.00
2023-02-23T02:50:27.545Z,0.00
2023-02-23T02:51:27.529Z,0.00
2023-02-23T02:52:27.549Z,0.00
2023-02-23T02:53:27.519Z,0.00
2023-02-23T02:54:27.518Z,0.00
2023-02-23T02:55:27.484Z,0.00
2023-02-23T02:56:27.477Z,0.00
2023-02-23T02:57:27.466Z,0.00
2023-02-23T02:58:27.489Z,0.00
2023-02-23T02:59:27.477Z,0.00
2023-02-23T03:00:27.439Z,0.00
2023-02-23T03:01:27.436Z,0.00
2023-02-23T03:02:27.431Z,0.00
2023-02-23T03:03:27.405Z,0.00
2023-02-23T03:04:27.404Z,0.00
2023-02-23T03:05:27.424Z,0.00
2023-02-23T03:06:27.368Z,0.00
2023-02-23T03:07:27.405Z,0.00
2023-02-23T03:08:27.358Z,0.00
2023-02-23T03:09:27.331Z,0.00
2023-02-23T03:10:27.327Z,0.00
2023-02-23T03:11:27.336Z,0.00
2023-02-23T03:12:27.318Z,0.00
2023-02-23T03:13:27.324Z,0.00
2023-02-23T03:14:27.296Z,0.00
2023-02-23T03:15:27.311Z,0.00
2023-02-23T03:16:27.289Z,0.00
2023-02-23T03:17:27.244Z,0.00
2023-02-23T03:18:27.282Z,0.00
2023-02-23T03:19:27.246Z,0.00
2023-02-23T03:20:27.245Z,0.00
2023-02-23T03:21:27.213Z,0.00
2023-02-23T03:22:27.210Z,0.00
2023-02-23T03:23:27.220Z,0.00
2023-02-23T03:24:27.201Z,0.00
2023-02-23T03:25:27.165Z,0.00
2023-02-23T03:26:27.148Z,0.00
2023-02-23T03:27:27.137Z,0.00
2023-02-23T03:28:27.142Z,0.00
2023-02-23T03:29:27.126Z,0.00
2023-02-23T03:30:27.148Z,0.00
2023-02-23T03:31:27.168Z,0.00
2023-02-23T03:32:27.212Z,0.00
2023-02-23T03:33:27.065Z,0.00
2023-02-23T03:34:27.080Z,0.00
2023-02-23T03:35:27.064Z,0.00
2023-02-23T03:36:27.036Z,0.00
2023-02-23T03:37:27.050Z,0.00
2023-02-23T03:38:27.013Z,0.00
2023-02-23T03:39:27.015Z,0.00
2023-02-23T03:40:26.992Z,0.00
2023-02-23T03:41:26.980Z,0.00
2023-02-23T03:42:26.981Z,0.00
2023-02-23T03:43:26.981Z,0.00
2023-02-23T03:44:26.958Z,0.00
2023-02-23T03:45:27.044Z,0.00
2023-02-23T03:46:26.931Z,0.00
2023-02-23T03:47:26.944Z,0.00
2023-02-23T03:48:26.910Z,0.00
2023-02-23T03:49:26.890Z,0.00
2023-02-23T03:50:26.898Z,0.00
2023-02-23T03:51:26.868Z,0.00
2023-02-23T03:52:26.860Z,0.00
2023-02-23T03:53:26.859Z,0.00
2023-02-23T03:54:26.846Z,0.00
2023-02-23T03:55:26.839Z,0.00
2023-02-23T03:56:26.819Z,0.00
2023-02-23T03:57:26.825Z,0.00
2023-02-23T03:58:26.805Z,0.00
2023-02-23T03:59:26.817Z,0.00
2023-02-23T04:00:26.786Z,0.00
2023-02-23T04:01:26.767Z,0.00
2023-02-23T04:02:26.776Z,0.00
2023-02-23T04:03:26.818Z,0.00
2023-02-23T04:04:26.742Z,0.00
2023-02-23T04:05:26.730Z,0.00
2023-02-23T04:06:26.735Z,0.00
2023-02-23T04:07:26.699Z,0.00
2023-02-23T04:08:26.690Z,0.00
2023-02-23T04:09:26.667Z,0.00
2023-02-23T04:10:26.662Z,0.00
2023-02-23T04:11:26.661Z,0.00
2023-02-23T04:12:26.653Z,0.00
2023-02-23T04:13:26.622Z,0.00
2023-02-23T04:14:26.624Z,0.00
2023-02-23T04:15:26.639Z,0.00
2023-02-23T04:16:26.650Z,0.00
2023-02-23T04:17:26.574Z,0.00
2023-02-23T04:18:26.602Z,0.00
2023-02-23T04:19:26.579Z,0.00
2023-02-23T04:20:26.585Z,0.00
2023-02-23T04:21:26.547Z,0.00
2023-02-23T04:22:26.536Z,0.00
2023-02-23T04:23:26.510Z,0.00
2023-02-23T04:24:26.508Z,0.00
2023-02-23T04:25:26.495Z,0.00
2023-02-23T04:26:26.498Z,0.00
2023-02-23T04:27:26.505Z,0.00
2023-02-23T04:28:26.469Z,0.00
2023-02-23T04:29:26.445Z,0.00
2023-02-23T04:30:26.501Z,0.00
2023-02-23T04:31:27.157Z,0.00
2023-02-23T04:32:26.579Z,0.00
2023-02-23T04:33:26.418Z,0.00
2023-02-23T04:34:26.422Z,0.00
2023-02-23T04:35:26.412Z,0.00
2023-02-23T04:36:26.413Z,0.00
2023-02-23T04:37:26.389Z,0.00
2023-02-23T04:38:26.355Z,0.00
2023-02-23T04:39:26.347Z,0.00
2023-02-23T04:40:26.345Z,0.00
2023-02-23T04:41:26.319Z,0.00
2023-02-23T04:42:26.323Z,0.00
2023-02-23T04:43:26.312Z,0.00
2023-02-23T04:44:26.303Z,0.00
2023-02-23T04:45:33.811Z,0.00
2023-02-23T04:46:26.269Z,0.00
2023-02-23T04:47:26.265Z,0.00
2023-02-23T04:48:26.294Z,0.00
2023-02-23T04:49:26.231Z,0.00
2023-02-23T04:50:26.232Z,0.00
2023-02-23T04:51:26.230Z,0.00
2023-02-23T04:52:27.122Z,0.00
2023-02-23T04:53:26.248Z,0.00
2023-02-23T04:54:26.220Z,0.00
2023-02-23T04:55:26.184Z,0.00
2023-02-23T04:56:26.187Z,0.00
2023-02-23T04:57:26.149Z,0.00
2023-02-23T04:58:26.150Z,0.00
2023-02-23T04:59:26.132Z,0.00
2023-02-23T05:00:26.118Z,0.00
2023-02-23T05:01:26.138Z,0.00
2023-02-23T05:02:26.107Z,0.00
2023-02-23T05:03:26.090Z,0.00
2023-02-23T05:04:26.100Z,0.00
2023-02-23T05:05:26.075Z,0.00
2023-02-23T05:06:26.078Z,0.00
2023-02-23T05:07:26.052Z,0.00
2023-02-23T05:08:26.028Z,0.00
2023-02-23T05:09:26.024Z,0.00
2023-02-23T05:10:26.018Z,0.00
2023-02-23T05:11:25.991Z,0.00
2023-02-23T05:12:25.984Z,0.00
2023-02-23T05:13:25.979Z,0.00
2023-02-23T05:14:25.976Z,0.00
2023-02-23T05:15:25.966Z,0.00
2023-02-23T05:16:25.940Z,0.00
2023-02-23T05:17:25.929Z,0.00
2023-02-23T05:18:25.935Z,0.00
2023-02-23T05:19:25.910Z,0.00
2023-02-23T05:20:25.897Z,0.00
2023-02-23T05:21:25.894Z,0.00
2023-02-23T05:22:25.915Z,0.00
2023-02-23T05:23:25.880Z,0.00
2023-02-23T05:24:25.888Z,0.00
2023-02-23T05:25:25.840Z,0.00
2023-02-23T05:26:25.839Z,0.00
2023-02-23T05:27:25.834Z,0.00
2023-02-23T05:28:25.834Z,0.00
2023-02-23T05:29:25.798Z,0.00
2023-02-23T05:30:25.842Z,0.00
2023-02-23T05:31:25.910Z,0.00
2023-02-23T05:32:25.946Z,0.00
2023-02-23T05:33:25.759Z,0.00
2023-02-23T05:34:25.749Z,0.00
2023-02-23T05:35:25.775Z,0.00
2023-02-23T05:36:25.742Z,0.00
2023-02-23T05:37:25.730Z,0.00
2023-02-23T05:38:25.710Z,0.00
2023-02-23T05:39:25.835Z,0.00
2023-02-23T05:40:25.681Z,0.00
2023-02-23T05:41:25.672Z,0.00
2023-02-23T05:42:25.663Z,0.00
2023-02-23T05:43:25.676Z,0.00
2023-02-23T05:44:25.668Z,0.00
2023-02-23T05:45:25.635Z,0.00
2023-02-23T05:46:25.652Z,0.00
2023-02-23T05:47:25.633Z,0.00
2023-02-23T05:48:25.596Z,0.00
2023-02-23T05:49:25.575Z,0.00
2023-02-23T05:50:25.560Z,0.00
2023-02-23T05:51:25.563Z,0.00
2023-02-23T05:52:25.550Z,0.00
2023-02-23T05:53:25.532Z,0.00
2023-02-23T05:54:25.517Z,0.00
2023-02-23T05:55:25.533Z,0.00
2023-02-23T05:56:25.516Z,0.00
2023-02-23T05:57:25.525Z,0.00
2023-02-23T05:58:25.488Z,0.00
2023-02-23T05:59:25.505Z,0.00
2023-02-23T06:00:25.459Z,0.00
2023-02-23T06:01:25.466Z,0.00
2023-02-23T06:02:25.462Z,0.00
2023-02-23T06:03:25.463Z,0.00
2023-02-23T06:04:25.410Z,0.00
2023-02-23T06:05:25.408Z,0.00
2023-02-23T06:06:25.455Z,0.00
2023-02-23T06:07:25.390Z,4.00
2023-02-23T06:08:25.365Z,4.00
2023-02-23T06:09:25.363Z,0.00
2023-02-23T06:10:25.366Z,4.00
2023-02-23T06:11:25.359Z,4.00
2023-02-23T06:12:25.343Z,4.00
2023-02-23T06:13:25.327Z,4.00
2023-02-23T06:14:25.325Z,4.00
2023-02-23T06:15:25.310Z,8.00
2023-02-23T06:16:25.388Z,8.00
2023-02-23T06:17:25.285Z,8.00
2023-02-23T06:18:25.286Z,8.00
2023-02-23T06:19:25.280Z,12.00
2023-02-23T06:20:25.251Z,12.00
2023-02-23T06:21:26.164Z,12.00
2023-02-23T06:22:25.240Z,16.00
2023-02-23T06:23:25.210Z,20.00
2023-02-23T06:24:25.234Z,16.00
2023-02-23T06:25:25.223Z,20.00
2023-02-23T06:26:25.212Z,20.00
2023-02-23T06:27:25.185Z,20.00
2023-02-23T06:28:25.161Z,28.00
2023-02-23T06:29:25.171Z,28.00
2023-02-23T06:30:25.175Z,28.00
2023-02-23T06:31:25.217Z,32.00
2023-02-23T06:32:25.239Z,36.00
2023-02-23T06:33:25.131Z,40.00
2023-02-23T06:34:25.125Z,40.00
2023-02-23T06:35:25.084Z,44.00
2023-02-23T06:36:25.114Z,48.00
2023-02-23T06:37:25.054Z,52.00
2023-02-23T06:38:25.153Z,56.00
2023-02-23T06:39:25.105Z,60.00
2023-02-23T06:40:25.058Z,68.00
2023-02-23T06:41:25.038Z,76.00
2023-02-23T06:42:25.045Z,84.00
2023-02-23T06:43:25.084Z,92.00
2023-02-23T06:44:25.006Z,100.00
2023-02-23T06:45:25.022Z,108.00
2023-02-23T06:46:32.843Z,112.00
2023-02-23T06:47:25.814Z,120.00
2023-02-23T06:48:24.964Z,128.00
2023-02-23T06:49:24.935Z,136.00
2023-02-23T06:50:24.909Z,136.00
2023-02-23T06:51:25.071Z,144.00
2023-02-23T06:52:24.907Z,148.00
2023-02-23T06:53:24.901Z,160.00
2023-02-23T06:54:24.869Z,164.00
2023-02-23T06:55:24.862Z,168.00
2023-02-23T06:56:24.860Z,172.00
2023-02-23T06:57:24.856Z,176.00
2023-02-23T06:58:24.861Z,180.00
2023-02-23T06:59:24.851Z,188.00
2023-02-23T07:00:25.370Z,188.00
2023-02-23T07:01:24.892Z,196.00
2023-02-23T07:02:24.823Z,200.00
2023-02-23T07:03:24.847Z,208.00
2023-02-23T07:04:24.879Z,212.00
2023-02-23T07:05:24.749Z,216.00
2023-02-23T07:06:24.750Z,220.00
2023-02-23T07:07:24.774Z,228.00
2023-02-23T07:08:24.765Z,228.00
2023-02-23T07:09:24.743Z,236.00
2023-02-23T07:10:24.700Z,240.00
2023-02-23T07:11:24.694Z,244.00
2023-02-23T07:12:24.674Z,248.00
2023-02-23T07:13:24.663Z,256.00
2023-02-23T07:14:26.938Z,264.00
2023-02-23T07:15:24.655Z,276.00
2023-02-23T07:16:24.706Z,284.00
2023-02-23T07:17:24.621Z,296.00
2023-02-23T07:18:24.619Z,300.00
2023-02-23T07:19:24.659Z,308.00
2023-02-23T07:20:24.585Z,312.00
2023-02-23T07:21:24.619Z,320.00
2023-02-23T07:22:24.556Z,324.00
2023-02-23T07:23:24.549Z,336.00
2023-02-23T07:24:24.923Z,348.00
2023-02-23T07:25:24.761Z,360.00
2023-02-23T07:26:24.535Z,368.00
2023-02-23T07:27:24.504Z,380.00
2023-02-23T07:28:24.534Z,388.00
2023-02-23T07:29:24.506Z,396.00
2023-02-23T07:30:24.493Z,408.00
2023-02-23T07:31:24.562Z,404.00
2023-02-23T07:32:24.662Z,404.00
2023-02-23T07:33:24.481Z,396.00
2023-02-23T07:34:24.427Z,392.00
2023-02-23T07:35:24.438Z,392.00
2023-02-23T07:36:24.456Z,392.00
2023-02-23T07:37:24.416Z,400.00
2023-02-23T07:38:24.395Z,412.00
2023-02-23T07:39:24.387Z,416.00
2023-02-23T07:40:24.442Z,424.00
2023-02-23T07:41:24.575Z,428.00
2023-02-23T07:42:24.464Z,432.00
2023-02-23T07:43:24.444Z,432.00
2023-02-23T07:44:24.608Z,428.00
2023-02-23T07:45:24.349Z,412.00
2023-02-23T07:46:24.690Z,396.00
2023-02-23T07:47:24.386Z,388.00
2023-02-23T07:48:24.797Z,384.00
2023-02-23T07:49:24.328Z,384.00
2023-02-23T07:50:24.266Z,384.00
2023-02-23T07:51:24.383Z,376.00
2023-02-23T07:52:24.244Z,376.00
2023-02-23T07:53:24.526Z,376.00
2023-02-23T07:54:24.236Z,376.00
2023-02-23T07:55:24.361Z,380.00
2023-02-23T07:56:24.268Z,384.00
2023-02-23T07:57:25.052Z,384.00
2023-02-23T07:58:24.195Z,384.00
2023-02-23T07:59:24.190Z,380.00
2023-02-23T08:00:24.163Z,380.00
2023-02-23T08:01:24.194Z,384.00
2023-02-23T08:02:24.127Z,388.00
2023-02-23T08:03:24.316Z,392.00
2023-02-23T08:04:24.228Z,392.00
2023-02-23T08:05:26.435Z,392.00
2023-02-23T08:06:24.177Z,400.00
2023-02-23T08:07:24.080Z,416.00
2023-02-23T08:08:24.066Z,428.00
2023-02-23T08:09:24.069Z,440.00
2023-02-23T08:10:24.044Z,452.00
2023-02-23T08:11:24.037Z,452.00
2023-02-23T08:12:24.025Z,456.00
2023-02-23T08:13:24.672Z,468.00
2023-02-23T08:14:24.011Z,492.00
2023-02-23T08:15:23.993Z,516.00
2023-02-23T08:16:24.003Z,544.00
2023-02-23T08:17:23.990Z,564.00
2023-02-23T08:18:24.077Z,576.00
2023-02-23T08:19:23.986Z,592.00
2023-02-23T08:20:23.977Z,612.00
2023-02-23T08:21:24.011Z,632.00
2023-02-23T08:22:23.917Z,652.00
2023-02-23T08:23:23.917Z,672.00
2023-02-23T08:24:23.934Z,688.00
2023-02-23T08:25:23.910Z,704.00
2023-02-23T08:26:23.880Z,716.00
2023-02-23T08:27:23.861Z,728.00
2023-02-23T08:28:23.883Z,736.00
2023-02-23T08:29:23.877Z,748.00
2023-02-23T08:30:23.837Z,752.00
2023-02-23T08:31:25.072Z,756.00
2023-02-23T08:32:23.918Z,768.00
2023-02-23T08:33:23.840Z,776.00
2023-02-23T08:34:23.898Z,796.00
2023-02-23T08:35:23.905Z,820.00
2023-02-23T08:36:23.798Z,828.00
2023-02-23T08:37:24.012Z,856.00
2023-02-23T08:38:23.818Z,876.00
2023-02-23T08:39:23.758Z,876.00
2023-02-23T08:40:23.796Z,884.00
2023-02-23T08:41:23.809Z,896.00
2023-02-23T08:42:24.673Z,888.00
2023-02-23T08:43:23.699Z,908.00
2023-02-23T08:44:23.681Z,944.00
2023-02-23T08:45:23.740Z,964.00
2023-02-23T08:46:23.720Z,976.00
2023-02-23T08:47:32.150Z,972.00
2023-02-23T08:48:24.222Z,972.00
2023-02-23T08:49:23.665Z,992.00
2023-02-23T08:50:25.260Z,988.00
2023-02-23T08:51:23.691Z,984.00
2023-02-23T08:52:23.626Z,984.00
2023-02-23T08:53:23.763Z,992.00
2023-02-23T08:55:04.101Z,1012.00
2023-02-23T09:00:10.915Z,1020.00
2023-02-23T09:01:10.920Z,1036.00
2023-02-23T09:02:10.940Z,1052.00
2023-02-23T09:03:10.846Z,1068.00
2023-02-23T09:04:10.870Z,1056.00
2023-02-23T09:05:11.181Z,1040.00
2023-02-23T09:06:11.234Z,1032.00
2023-02-23T09:07:10.960Z,1028.00
2023-02-23T09:08:11.642Z,1040.00
2023-02-23T09:09:10.809Z,1032.00
2023-02-23T09:10:10.802Z,1032.00
2023-02-23T09:11:10.768Z,1040.00
2023-02-23T09:12:10.796Z,1032.00
2023-02-23T09:13:10.964Z,1020.00
2023-02-23T09:14:10.760Z,1012.00
2023-02-23T09:15:11.784Z,1004.00
2023-02-23T09:16:11.619Z,984.00
2023-02-23T09:17:11.434Z,964.00
2023-02-23T09:18:10.774Z,944.00
2023-02-23T09:19:10.690Z,924.00
2023-02-23T09:20:10.963Z,920.00
2023-02-23T09:21:14.247Z,892.00
2023-02-23T09:40:24.821Z,1272.00
2023-02-23T09:41:24.708Z,1268.00
2023-02-23T09:42:24.717Z,1248.00
2023-02-23T09:43:24.867Z,1216.00
2023-02-23T09:44:24.681Z,1176.00
2023-02-23T09:45:25.870Z,1176.00
2023-02-23T09:46:24.723Z,1212.00
2023-02-23T09:47:24.746Z,1244.00
2023-02-23T09:48:24.650Z,1284.00
2023-02-23T09:49:24.687Z,1288.00
2023-02-23T09:50:24.611Z,1240.00
2023-02-23T09:51:24.616Z,1192.00
2023-02-23T09:52:24.672Z,1136.00
2023-02-23T09:53:24.704Z,1116.00
2023-02-23T09:54:24.581Z,1144.00
2023-02-23T09:55:24.612Z,1144.00
2023-02-23T09:56:24.690Z,1124.00
2023-02-23T09:57:25.639Z,1140.00
2023-02-23T09:58:24.707Z,1148.00
2023-02-23T09:59:24.557Z,1136.00
2023-02-23T10:00:25.138Z,1136.00
2023-02-23T10:01:24.785Z,1224.00
2023-02-23T10:02:24.722Z,1296.00
2023-02-23T10:03:24.564Z,1340.00
2023-02-23T10:04:24.518Z,1332.00
2023-02-23T10:05:24.530Z,1348.00
2023-02-23T10:06:24.499Z,1416.00
2023-02-23T10:07:24.648Z,1492.00
2023-02-23T10:08:24.416Z,1544.00
2023-02-23T10:09:24.390Z,1484.00
2023-02-23T10:10:24.411Z,1516.00
2023-02-23T10:11:24.413Z,1624.00
2023-02-23T10:12:24.445Z,1688.00
2023-02-23T10:13:24.386Z,1640.00
2023-02-23T10:14:24.352Z,1616.00
2023-02-23T10:15:24.338Z,1656.00
2023-02-23T10:16:24.315Z,1680.00
2023-02-23T10:17:24.307Z,1764.00
2023-02-23T10:18:30.706Z,1848.00
2023-02-23T10:19:25.328Z,1884.00
2023-02-23T10:20:25.231Z,1896.00
2023-02-23T10:21:24.278Z,1936.00
2023-02-23T10:22:24.251Z,1960.00
2023-02-23T10:23:25.169Z,1976.00
2023-02-23T10:24:26.603Z,2088.00
2023-02-23T10:25:24.248Z,2132.00
2023-02-23T10:26:24.288Z,2140.00
2023-02-23T10:27:24.220Z,2140.00
2023-02-23T10:28:24.207Z,2140.00
2023-02-23T10:29:24.219Z,2248.00
2023-02-23T10:30:27.253Z,2264.00
2023-02-23T10:31:25.323Z,2296.00
2023-02-23T10:32:24.745Z,2220.00
2023-02-23T10:33:25.850Z,2220.00
2023-02-23T10:34:24.365Z,2208.00
2023-02-23T10:35:24.583Z,2132.00
2023-02-23T10:36:24.243Z,2040.00
2023-02-23T10:37:24.111Z,2004.00
2023-02-23T10:38:24.283Z,1932.00
2023-02-23T10:39:24.386Z,1900.00
2023-02-23T10:40:24.300Z,1828.00
2023-02-23T10:41:24.349Z,1780.00
2023-02-23T10:42:24.485Z,1700.00
2023-02-23T10:43:24.617Z,1636.00
2023-02-23T10:44:24.368Z,1672.00
2023-02-23T10:45:24.648Z,1668.00
2023-02-23T10:46:24.457Z,1628.00
2023-02-23T10:47:24.265Z,1480.00
2023-02-23T10:48:24.541Z,1496.00
2023-02-23T10:49:24.594Z,1568.00
2023-02-23T10:50:24.242Z,1636.00
2023-02-23T10:51:24.113Z,1788.00
2023-02-23T10:52:24.236Z,1896.00
2023-02-23T10:53:24.223Z,1964.00
2023-02-23T10:54:24.184Z,2040.00
2023-02-23T10:55:24.475Z,2208.00
2023-02-23T10:56:23.884Z,2336.00
2023-02-23T10:57:24.538Z,2412.00
2023-02-23T10:58:24.505Z,2544.00
2023-02-23T10:59:24.303Z,2536.00
2023-02-23T11:00:24.150Z,2520.00
2023-02-23T11:01:24.155Z,2508.00
2023-02-23T11:02:24.424Z,2492.00
2023-02-23T11:03:24.424Z,2464.00
2023-02-23T11:04:24.166Z,2408.00
2023-02-23T11:05:24.121Z,2308.00
2023-02-23T11:06:24.203Z,2172.00
2023-02-23T11:07:24.368Z,2100.00
2023-02-23T11:08:24.012Z,2304.00
2023-02-23T11:09:33.132Z,2384.00
2023-02-23T11:10:23.715Z,2524.00
2023-02-23T11:11:24.096Z,2552.00
2023-02-23T11:12:24.219Z,2476.00
2023-02-23T11:13:24.152Z,2560.00
2023-02-23T11:14:24.165Z,2664.00
2023-02-23T11:15:32.010Z,2776.00
2023-02-23T11:16:23.711Z,2844.00
2023-02-23T11:17:24.285Z,2876.00
2023-02-23T11:18:24.412Z,2868.00
2023-02-23T11:19:24.186Z,2732.00
2023-02-23T11:20:23.599Z,2536.00
2023-02-23T11:21:23.599Z,2392.00
2023-02-23T11:22:23.591Z,2260.00
2023-02-23T11:23:23.885Z,2252.00
2023-02-23T11:24:23.587Z,2372.00
2023-02-23T11:25:24.152Z,2408.00
2023-02-23T11:26:23.679Z,2320.00
2023-02-23T11:27:23.517Z,2264.00
2023-02-23T11:28:23.524Z,2160.00
2023-02-23T11:29:23.512Z,2204.00
2023-02-23T11:30:23.493Z,2256.00
2023-02-23T11:31:24.038Z,2160.00
2023-02-23T11:32:23.769Z,2000.00
2023-02-23T11:33:23.470Z,1872.00
2023-02-23T11:34:23.444Z,1796.00
2023-02-23T11:35:23.437Z,1776.00
2023-02-23T11:36:23.411Z,1744.00
2023-02-23T11:37:23.436Z,1816.00
2023-02-23T11:38:23.496Z,1856.00
2023-02-23T11:39:23.582Z,1812.00
2023-02-23T11:40:30.889Z,1816.00
2023-02-23T11:41:23.367Z,1944.00
2023-02-23T11:42:23.362Z,2148.00
2023-02-23T11:43:23.339Z,2280.00
2023-02-23T11:44:23.337Z,2304.00
2023-02-23T11:45:23.358Z,2396.00
2023-02-23T11:46:23.937Z,2616.00
2023-02-23T11:47:23.335Z,2812.00
2023-02-23T11:48:23.336Z,2948.00
2023-02-23T11:49:23.300Z,2956.00
2023-02-23T11:50:23.268Z,2860.00
2023-02-23T11:51:23.267Z,2608.00
2023-02-23T11:52:23.798Z,2600.00
2023-02-23T11:53:23.228Z,2380.00
2023-02-23T11:54:23.361Z,2040.00
2023-02-23T11:55:23.683Z,1784.00
2023-02-23T11:56:23.197Z,1592.00
2023-02-23T11:57:23.200Z,1412.00
2023-02-23T11:58:23.178Z,1348.00
2023-02-23T11:59:23.161Z,1460.00
2023-02-23T12:00:23.163Z,1696.00
2023-02-23T12:01:23.152Z,2004.00
2023-02-23T12:02:23.242Z,2280.00
2023-02-23T12:03:23.209Z,2236.00
2023-02-23T12:04:23.133Z,2252.00
2023-02-23T12:05:23.122Z,2204.00
2023-02-23T12:06:23.203Z,2120.00
2023-02-23T12:07:23.110Z,2132.00
2023-02-23T12:08:23.080Z,2196.00
2023-02-23T12:09:23.077Z,2228.00
2023-02-23T12:10:23.094Z,2016.00
2023-02-23T12:11:23.043Z,1740.00
2023-02-23T12:12:23.038Z,1552.00
2023-02-23T12:13:23.011Z,1432.00
2023-02-23T12:14:23.036Z,1416.00
2023-02-23T12:15:23.006Z,1312.00
2023-02-23T12:16:23.321Z,1296.00
2023-02-23T12:17:23.301Z,1308.00
2023-02-23T12:18:23.039Z,1440.00
2023-02-23T12:19:22.964Z,1636.00
2023-02-23T12:20:23.014Z,1816.00
2023-02-23T12:21:22.989Z,1824.00
2023-02-23T12:22:22.917Z,1948.00
2023-02-23T12:23:23.055Z,2128.00
2023-02-23T12:24:22.950Z,2176.00
2023-02-23T12:25:23.047Z,2164.00
2023-02-23T12:26:22.894Z,2076.00
2023-02-23T12:27:22.910Z,1892.00
2023-02-23T12:28:22.852Z,1752.00
2023-02-23T12:29:22.836Z,1680.00
2023-02-23T12:30:22.840Z,1700.00
2023-02-23T12:31:22.852Z,1928.00
2023-02-23T12:32:22.944Z,2104.00
2023-02-23T12:33:22.799Z,2232.00
2023-02-23T12:34:22.807Z,2492.00
2023-02-23T12:35:22.760Z,2792.00
2023-02-23T12:36:22.776Z,2984.00
2023-02-23T12:37:22.903Z,3100.00
2023-02-23T12:38:22.844Z,3336.00
2023-02-23T12:39:22.730Z,3540.00
2023-02-23T12:40:22.731Z,3652.00
2023-02-23T12:41:22.716Z,3788.00
2023-02-23T12:42:22.696Z,3792.00
2023-02-23T12:43:22.684Z,3640.00
2023-02-23T12:44:22.649Z,3404.00
2023-02-23T12:45:22.653Z,3172.00
2023-02-23T12:46:23.252Z,3032.00
2023-02-23T12:47:22.650Z,2904.00
2023-02-23T12:48:22.610Z,2708.00
2023-02-23T12:49:22.601Z,2668.00
2023-02-23T12:50:22.621Z,2524.00
2023-02-23T12:51:22.632Z,2456.00
2023-02-23T12:52:22.595Z,2540.00
2023-02-23T12:53:22.570Z,2536.00
2023-02-23T12:54:22.548Z,2436.00
2023-02-23T12:55:22.543Z,2448.00
2023-02-23T12:56:22.532Z,2448.00
2023-02-23T12:57:22.531Z,2384.00
2023-02-23T12:58:22.515Z,2344.00
2023-02-23T12:59:22.496Z,2368.00
2023-02-23T13:00:22.484Z,2248.00
2023-02-23T13:01:23.034Z,1912.00
2023-02-23T13:02:22.505Z,1716.00
2023-02-23T13:03:22.454Z,1636.00
2023-02-23T13:04:22.445Z,1512.00
2023-02-23T13:05:22.450Z,1448.00
2023-02-23T13:06:22.450Z,1384.00
2023-02-23T13:07:22.456Z,1312.00
2023-02-23T13:08:22.419Z,1336.00